createdAt,value
2023-02-15T00:07:20.077Z,-1.20
2023-02-15T00:09:48.043Z,-1.30
2023-02-15T00:12:17.094Z,-1.30
2023-02-15T00:14:44.362Z,-1.30
2023-02-15T00:17:11.412Z,-1.30
2023-02-15T00:19:38.410Z,-1.30
2023-02-15T00:24:33.030Z,-1.30
2023-02-15T00:34:28.700Z,-1.40
2023-02-15T00:36:55.928Z,-1.50
2023-02-15T00:41:51.793Z,-1.50
2023-02-15T00:44:18.756Z,-1.50
2023-02-15T00:49:13.029Z,-1.50
2023-02-15T00:56:35.212Z,-1.70
2023-02-15T01:01:29.537Z,-1.60
2023-02-15T01:03:56.579Z,-1.60
2023-02-15T01:06:23.604Z,-1.70
2023-02-15T01:08:50.571Z,-1.70
2023-02-15T01:11:24.690Z,-1.80
2023-02-15T01:13:57.204Z,-1.90
2023-02-15T01:16:27.259Z,-1.90
2023-02-15T01:21:25.459Z,-1.90
2023-02-15T01:23:52.656Z,-1.80
2023-02-15T01:26:21.124Z,-1.90
2023-02-15T01:31:18.731Z,-2.00
2023-02-15T01:33:47.217Z,-1.90
2023-02-15T01:41:23.732Z,-2.10
2023-02-15T01:43:59.777Z,-2.00
2023-02-15T01:46:41.904Z,-2.00
2023-02-15T01:49:29.468Z,-2.00
2023-02-15T01:54:35.438Z,-2.10
2023-02-15T01:57:23.797Z,-2.10
2023-02-15T01:59:58.038Z,-2.10
2023-02-15T02:04:59.354Z,-2.10
2023-02-15T02:07:30.334Z,-2.20
2023-02-15T02:12:26.000Z,-2.20
2023-02-15T02:14:53.866Z,-2.20
2023-02-15T02:17:37.158Z,-2.20
2023-02-15T02:20:49.385Z,-2.30
2023-02-15T02:26:43.353Z,-2.40
2023-02-15T02:30:07.418Z,-2.40
2023-02-15T02:33:16.926Z,-2.40
2023-02-15T02:36:03.117Z,-2.30
2023-02-15T02:39:01.636Z,-2.40
2023-02-15T02:41:43.216Z,-2.30
2023-02-15T02:44:44.511Z,-2.40
2023-02-15T02:47:25.206Z,-2.40
2023-02-15T02:50:06.063Z,-2.50
2023-02-15T02:52:44.873Z,-2.50
2023-02-15T02:55:29.946Z,-2.60
2023-02-15T02:58:08.095Z,-2.50
2023-02-15T03:00:45.767Z,-2.40
2023-02-15T03:03:39.260Z,-2.60
2023-02-15T03:06:18.954Z,-2.60
2023-02-15T03:08:52.330Z,-2.50
2023-02-15T03:13:49.576Z,-2.60
2023-02-15T03:16:28.258Z,-2.60
2023-02-15T03:19:20.340Z,-2.70
2023-02-15T03:21:58.552Z,-2.60
2023-02-15T03:24:33.537Z,-2.60
2023-02-15T03:27:04.179Z,-2.60
2023-02-15T03:29:32.857Z,-2.60
2023-02-15T03:32:04.491Z,-2.70
2023-02-15T03:34:31.500Z,-2.70
2023-02-15T03:37:22.833Z,-2.70
2023-02-15T03:40:31.246Z,-2.80
2023-02-15T03:43:12.389Z,-2.80
2023-02-15T03:45:55.468Z,-2.70
2023-02-15T03:48:38.629Z,-2.80
2023-02-15T03:51:29.956Z,-2.80
2023-02-15T03:53:58.399Z,-2.80
2023-02-15T03:56:25.595Z,-2.80
2023-02-15T04:01:58.883Z,-2.90
2023-02-15T04:04:43.379Z,-2.90
2023-02-15T04:07:10.866Z,-2.80
2023-02-15T04:17:39.799Z,-2.90
2023-02-15T04:20:26.872Z,-3.00
2023-02-15T04:35:32.570Z,-3.10
2023-02-15T04:40:26.903Z,-3.00
2023-02-15T04:57:37.966Z,-3.10
2023-02-15T05:00:05.774Z,-3.00
2023-02-15T05:02:32.679Z,-2.70
2023-02-15T05:09:54.198Z,-3.20
2023-02-15T05:12:21.633Z,-3.10
2023-02-15T05:35:08.638Z,-3.20
2023-02-15T05:40:03.256Z,-3.20
2023-02-15T05:59:41.997Z,-3.40
2023-02-15T06:19:23.722Z,-3.30
2023-02-15T06:24:18.451Z,-3.10
2023-02-15T06:36:34.699Z,-3.30
2023-02-15T06:41:30.820Z,-3.10
2023-02-15T06:48:52.726Z,-3.00
2023-02-15T07:01:10.629Z,-2.60
2023-02-15T07:06:09.074Z,-2.70
2023-02-15T07:08:37.484Z,-2.60
2023-02-15T07:13:50.914Z,-2.40
2023-02-15T07:16:17.790Z,-2.40
2023-02-15T07:21:12.088Z,-2.20
2023-02-15T07:23:40.552Z,-2.30
2023-02-15T07:26:08.229Z,-2.10
2023-02-15T07:28:36.358Z,-2.10
2023-02-15T07:33:33.007Z,-1.90
2023-02-15T07:36:03.738Z,-1.80
2023-02-15T07:38:37.206Z,-1.70
2023-02-15T07:41:10.171Z,-1.50
2023-02-15T07:43:41.396Z,-1.50
2023-02-15T07:46:12.539Z,-1.60
2023-02-15T07:48:40.928Z,-1.40
2023-02-15T07:51:10.375Z,-1.30
2023-02-15T07:53:38.746Z,-1.20
2023-02-15T07:56:11.539Z,-1.20
2023-02-15T07:58:53.816Z,-3.50
2023-02-15T08:01:36.242Z,-1.00
2023-02-15T08:04:05.184Z,-0.80
2023-02-15T08:06:35.991Z,-0.80
2023-02-15T08:09:07.631Z,-0.60
2023-02-15T08:11:37.873Z,-0.60
2023-02-15T08:14:18.967Z,-0.50
2023-02-15T08:16:53.727Z,-0.40
2023-02-15T08:19:25.961Z,-0.40
2023-02-15T08:21:58.501Z,-0.30
2023-02-15T08:24:30.096Z,-0.20
2023-02-15T08:26:57.926Z,-0.20
2023-02-15T08:29:28.018Z,0.00
2023-02-15T08:32:03.191Z,0.00
2023-02-15T08:34:35.512Z,0.10
2023-02-15T08:37:02.502Z,0.20
2023-02-15T08:39:29.862Z,0.20
2023-02-15T08:41:56.880Z,0.30
2023-02-15T08:44:23.969Z,0.40
2023-02-15T08:46:51.392Z,0.50
2023-02-15T08:49:25.045Z,0.60
2023-02-15T08:51:52.429Z,0.70
2023-02-15T08:54:22.143Z,0.80
2023-02-15T08:56:49.468Z,1.00
2023-02-15T08:59:23.174Z,1.10
2023-02-15T09:01:52.774Z,1.20
2023-02-15T09:04:21.301Z,1.20
2023-02-15T09:06:50.776Z,1.40
2023-02-15T09:09:19.770Z,1.50
2023-02-15T09:11:54.600Z,1.50
2023-02-15T09:14:25.973Z,1.60
2023-02-15T09:16:53.897Z,1.70
2023-02-15T09:19:23.358Z,1.80
2023-02-15T09:21:50.407Z,1.90
2023-02-15T09:24:18.673Z,2.00
2023-02-15T09:26:48.926Z,2.10
2023-02-15T09:29:18.307Z,2.20
2023-02-15T09:31:50.013Z,2.30
2023-02-15T09:34:20.602Z,2.40
2023-02-15T09:36:48.996Z,2.70
2023-02-15T09:39:25.038Z,2.90
2023-02-15T09:42:27.496Z,3.20
2023-02-15T09:45:44.299Z,3.60
2023-02-15T09:48:39.896Z,3.90
2023-02-15T09:51:23.334Z,4.30
2023-02-15T09:54:21.103Z,4.70
2023-02-15T09:57:07.213Z,5.00
2023-02-15T09:59:55.878Z,5.40
2023-02-15T10:02:48.082Z,5.70
2023-02-15T10:05:29.812Z,6.00
2023-02-15T10:08:14.438Z,6.30
2023-02-15T10:11:35.711Z,6.50
2023-02-15T10:14:43.795Z,6.70
2023-02-15T10:17:42.900Z,6.90
2023-02-15T10:20:35.270Z,7.10
2023-02-15T10:23:26.905Z,8.30
2023-02-15T10:26:12.421Z,7.30
2023-02-15T10:28:55.131Z,7.40
2023-02-15T10:31:32.403Z,7.40
2023-02-15T10:34:19.949Z,7.50
2023-02-15T10:37:10.864Z,7.50
2023-02-15T10:40:14.022Z,7.40
2023-02-15T10:43:18.484Z,7.40
2023-02-15T10:46:15.416Z,7.50
2023-02-15T10:49:46.896Z,7.50
2023-02-15T10:52:34.868Z,7.60
2023-02-15T10:55:49.616Z,7.80
2023-02-15T10:58:39.590Z,7.90
2023-02-15T11:01:21.001Z,9.70
2023-02-15T11:04:05.792Z,8.00
2023-02-15T11:06:34.726Z,8.00
2023-02-15T11:09:10.625Z,8.00
2023-02-15T11:11:41.509Z,8.10
2023-02-15T11:14:40.071Z,8.30
2023-02-15T11:17:15.609Z,8.30
2023-02-15T11:20:03.918Z,10.30
2023-02-15T11:22:33.232Z,8.70
2023-02-15T11:25:03.153Z,11.80
2023-02-15T11:27:36.308Z,9.20
2023-02-15T11:30:16.605Z,11.00
2023-02-15T11:32:50.198Z,9.70
2023-02-15T11:35:33.248Z,10.10
2023-02-15T11:38:23.331Z,10.20
2023-02-15T11:41:04.812Z,11.10
2023-02-15T11:44:02.050Z,10.90
2023-02-15T11:46:29.705Z,11.20
2023-02-15T11:48:57.013Z,11.80
2023-02-15T11:51:24.560Z,13.00
2023-02-15T11:53:52.593Z,13.30
2023-02-15T11:56:27.373Z,12.80
2023-02-15T11:59:04.539Z,12.50
2023-02-15T12:01:43.965Z,12.70
2023-02-15T12:04:36.885Z,12.70
2023-02-15T12:07:33.414Z,12.90
2023-02-15T12:10:23.621Z,13.00
2023-02-15T12:13:12.254Z,13.00
2023-02-15T12:15:43.487Z,13.00
2023-02-15T12:18:41.780Z,14.00
2023-02-15T12:21:16.220Z,13.20
2023-02-15T12:23:55.466Z,13.30
2023-02-15T12:26:29.725Z,13.40
2023-02-15T12:29:03.038Z,14.10
2023-02-15T12:31:38.429Z,14.30
2023-02-15T12:34:14.338Z,14.60
2023-02-15T12:36:51.782Z,13.00
2023-02-15T12:39:36.991Z,13.90
2023-02-15T12:42:17.352Z,12.90
2023-02-15T12:45:27.164Z,12.30
2023-02-15T12:48:22.218Z,12.00
2023-02-15T12:50:55.293Z,11.80
2023-02-15T12:53:33.279Z,12.00
2023-02-15T12:56:07.259Z,12.50
2023-02-15T12:58:36.357Z,11.70
2023-02-15T13:01:22.194Z,13.10
2023-02-15T13:04:02.734Z,12.40
2023-02-15T13:06:34.178Z,12.00
2023-02-15T13:09:17.891Z,12.80
2023-02-15T13:11:46.340Z,12.60
2023-02-15T13:14:29.844Z,13.00
2023-02-15T13:17:01.680Z,13.00
2023-02-15T13:19:38.314Z,13.20
2023-02-15T13:22:16.331Z,13.30
2023-02-15T13:25:04.936Z,13.30
2023-02-15T13:27:41.261Z,13.30
2023-02-15T13:30:33.908Z,13.40
2023-02-15T13:33:06.429Z,13.30
2023-02-15T13:36:18.885Z,13.20
2023-02-15T13:39:18.657Z,13.10
2023-02-15T13:41:59.579Z,13.10
2023-02-15T13:45:06.784Z,13.60
2023-02-15T13:47:55.752Z,12.90
2023-02-15T13:50:59.802Z,12.50
2023-02-15T13:54:03.915Z,12.10
2023-02-15T13:57:35.115Z,11.70
2023-02-15T14:00:32.861Z,11.10
2023-02-15T14:03:44.492Z,10.60
2023-02-15T14:06:36.411Z,10.20
2023-02-15T14:09:48.474Z,11.40
2023-02-15T14:12:30.262Z,9.60
2023-02-15T14:15:10.988Z,9.40
2023-02-15T14:18:27.843Z,9.30
2023-02-15T14:21:04.523Z,9.20
2023-02-15T14:23:54.779Z,9.20
2023-02-15T14:26:48.602Z,9.00
2023-02-15T14:29:52.342Z,8.80
2023-02-15T14:32:46.392Z,8.70
2023-02-15T14:35:20.490Z,8.60
2023-02-15T14:38:03.761Z,9.90
2023-02-15T14:41:02.501Z,8.50
2023-02-15T14:44:03.283Z,8.40
2023-02-15T14:47:12.112Z,8.40
2023-02-15T14:49:40.920Z,8.30
2023-02-15T14:52:13.597Z,8.30
2023-02-15T14:54:40.364Z,8.30
2023-02-15T14:57:07.352Z,8.30
2023-02-15T14:59:59.691Z,8.20
2023-02-15T15:02:49.856Z,8.20
2023-02-15T15:05:36.190Z,8.20
2023-02-15T15:08:05.862Z,8.20
2023-02-15T15:10:45.281Z,8.10
2023-02-15T15:13:31.052Z,8.20
2023-02-15T15:16:29.525Z,7.90
2023-02-15T15:18:57.700Z,7.80
2023-02-15T15:21:49.276Z,7.70
2023-02-15T15:24:37.961Z,7.60
2023-02-15T15:27:38.945Z,7.40
2023-02-15T15:30:26.103Z,7.10
2023-02-15T15:32:55.783Z,6.90
2023-02-15T15:36:25.591Z,6.70
2023-02-15T15:39:33.032Z,6.50
2023-02-15T15:42:13.688Z,6.40
2023-02-15T15:45:20.361Z,6.20
2023-02-15T15:48:20.728Z,6.20
2023-02-15T15:50:49.617Z,6.10
2023-02-15T15:53:25.691Z,7.90
2023-02-15T15:56:02.221Z,6.00
2023-02-15T15:58:32.277Z,5.90
2023-02-15T16:01:14.606Z,7.20
2023-02-15T16:03:55.187Z,6.60
2023-02-15T16:06:36.120Z,5.80
2023-02-15T16:09:24.984Z,5.70
2023-02-15T16:12:06.058Z,5.50
2023-02-15T16:14:41.784Z,5.50
2023-02-15T16:17:21.709Z,5.30
2023-02-15T16:19:48.705Z,7.70
2023-02-15T16:22:22.165Z,5.10
2023-02-15T16:24:58.140Z,7.80
2023-02-15T16:27:33.890Z,4.90
2023-02-15T16:30:20.002Z,4.90
2023-02-15T16:32:47.267Z,4.90
2023-02-15T16:35:18.157Z,4.80
2023-02-15T16:37:46.431Z,4.70
2023-02-15T16:40:56.979Z,7.40
2023-02-15T16:43:27.790Z,4.50
2023-02-15T16:46:06.151Z,4.50
2023-02-15T16:48:35.467Z,4.40
2023-02-15T16:51:02.903Z,4.30
2023-02-15T16:53:30.903Z,5.70
2023-02-15T16:56:05.411Z,4.00
2023-02-15T16:58:47.064Z,6.40
2023-02-15T17:01:16.708Z,3.90
2023-02-15T17:03:43.984Z,3.90
2023-02-15T17:06:22.714Z,3.90
2023-02-15T17:08:50.067Z,3.70
2023-02-15T17:11:21.481Z,3.60
2023-02-15T17:14:04.167Z,3.40
2023-02-15T17:16:38.256Z,3.50
2023-02-15T17:19:31.144Z,3.30
2023-02-15T17:22:07.792Z,3.30
2023-02-15T17:24:46.062Z,3.30
2023-02-15T17:27:18.255Z,3.30
2023-02-15T17:29:52.579Z,3.20
2023-02-15T17:32:29.291Z,3.00
2023-02-15T17:35:29.504Z,3.10
2023-02-15T17:38:11.642Z,2.90
2023-02-15T17:40:38.543Z,6.10
2023-02-15T17:43:05.532Z,2.90
2023-02-15T17:45:42.995Z,2.80
2023-02-15T17:48:35.594Z,2.80
2023-02-15T17:51:05.912Z,2.90
2023-02-15T17:53:33.256Z,2.90
2023-02-15T17:56:00.178Z,2.80
2023-02-15T17:58:27.142Z,2.70
2023-02-15T18:01:16.669Z,2.80
2023-02-15T18:04:10.740Z,2.80
2023-02-15T18:07:00.728Z,2.70
2023-02-15T18:09:46.489Z,2.60
2023-02-15T18:12:26.630Z,2.60
2023-02-15T18:14:54.623Z,2.60
2023-02-15T18:17:34.619Z,2.50
2023-02-15T18:20:06.468Z,2.50
2023-02-15T18:22:34.048Z,2.50
2023-02-15T18:25:00.999Z,2.40
2023-02-15T18:27:27.950Z,2.50
2023-02-15T18:29:54.990Z,2.30
2023-02-15T18:32:36.270Z,2.30
2023-02-15T18:35:04.535Z,2.30
2023-02-15T18:37:33.181Z,2.20
2023-02-15T18:40:01.294Z,2.30
2023-02-15T18:42:32.121Z,2.10
2023-02-15T18:45:19.355Z,2.10
2023-02-15T18:47:47.450Z,2.10
2023-02-15T18:50:17.122Z,2.10
2023-02-15T18:52:47.199Z,1.90
2023-02-15T18:55:28.221Z,1.80
2023-02-15T18:57:57.328Z,1.80
2023-02-15T19:00:32.239Z,1.80
2023-02-15T19:03:01.995Z,1.80
2023-02-15T19:05:30.555Z,1.80
2023-02-15T19:08:00.900Z,1.80
2023-02-15T19:10:30.836Z,1.80
2023-02-15T19:12:58.400Z,1.80
2023-02-15T19:15:30.295Z,1.70
2023-02-15T19:17:57.428Z,1.80
2023-02-15T19:20:30.517Z,1.70
2023-02-15T19:23:01.308Z,2.80
2023-02-15T19:25:31.272Z,1.70
2023-02-15T19:27:59.510Z,1.70
2023-02-15T19:30:30.528Z,1.50
2023-02-15T19:32:58.950Z,1.50
2023-02-15T19:35:30.190Z,1.50
2023-02-15T19:38:00.388Z,1.40
2023-02-15T19:40:34.973Z,1.50
2023-02-15T19:43:03.383Z,1.40
2023-02-15T19:45:32.604Z,1.30
2023-02-15T19:48:01.922Z,1.30
2023-02-15T19:50:32.069Z,0.90
2023-02-15T19:52:59.267Z,1.10
2023-02-15T19:55:33.724Z,0.90
2023-02-15T19:58:02.505Z,1.20
2023-02-15T20:00:34.257Z,1.20
2023-02-15T20:03:01.463Z,1.10
2023-02-15T20:05:31.615Z,1.00
2023-02-15T20:07:58.865Z,0.90
2023-02-15T20:10:31.427Z,0.90
2023-02-15T20:12:58.754Z,3.70
2023-02-15T20:15:35.876Z,0.70
2023-02-15T20:18:04.163Z,0.80
2023-02-15T20:20:42.388Z,0.70
2023-02-15T20:23:30.672Z,0.60
2023-02-15T20:26:00.348Z,0.60
2023-02-15T20:28:30.485Z,0.60
2023-02-15T20:30:57.663Z,0.70
2023-02-15T20:33:24.728Z,0.60
2023-02-15T20:35:51.848Z,0.60
2023-02-15T20:38:28.191Z,0.60
2023-02-15T20:41:15.457Z,0.70
2023-02-15T20:43:42.837Z,0.60
2023-02-15T20:46:09.942Z,0.60
2023-02-15T20:48:37.097Z,0.60
2023-02-15T20:51:04.773Z,0.50
2023-02-15T20:53:31.933Z,0.60
2023-02-15T20:55:58.872Z,0.50
2023-02-15T20:58:30.703Z,0.40
2023-02-15T21:00:59.110Z,0.40
2023-02-15T21:03:30.897Z,0.30
2023-02-15T21:05:58.904Z,0.30
2023-02-15T21:08:26.959Z,0.30
2023-02-15T21:10:54.392Z,0.20
2023-02-15T21:13:35.252Z,0.20
2023-02-15T21:16:03.240Z,0.30
2023-02-15T21:18:34.285Z,0.30
2023-02-15T21:21:05.073Z,0.20
2023-02-15T21:23:39.703Z,0.20
2023-02-15T21:26:11.915Z,0.20
2023-02-15T21:28:40.296Z,0.10
2023-02-15T21:31:22.064Z,0.10
2023-02-15T21:33:50.174Z,0.00
2023-02-15T21:36:21.917Z,0.00
2023-02-15T21:38:49.851Z,-0.10
2023-02-15T21:41:39.268Z,-0.20
2023-02-15T21:44:42.345Z,-0.30
2023-02-15T21:47:42.792Z,-0.30
2023-02-15T21:50:39.323Z,-0.30
2023-02-15T21:53:09.843Z,-0.40
2023-02-15T21:55:36.739Z,3.30
2023-02-15T21:58:04.489Z,-0.50
2023-02-15T22:00:31.662Z,-0.40
2023-02-15T22:03:00.988Z,-0.50
2023-02-15T22:05:33.661Z,-0.60
2023-02-15T22:08:01.040Z,-0.50
2023-02-15T22:10:32.313Z,-0.50
2023-02-15T22:13:02.982Z,-0.50
2023-02-15T22:15:35.962Z,-0.50
2023-02-15T22:18:03.952Z,-0.50
2023-02-15T22:20:31.145Z,-0.60
2023-02-15T22:22:58.194Z,2.30
2023-02-15T22:25:27.099Z,-0.60
2023-02-15T22:27:54.971Z,-0.60
2023-02-15T22:30:25.323Z,-0.70
2023-02-15T22:32:53.843Z,-0.70
2023-02-15T22:35:28.344Z,-0.80
2023-02-15T22:37:55.736Z,-0.80
2023-02-15T22:40:29.752Z,-0.80
2023-02-15T22:42:58.441Z,-0.80
2023-02-15T22:45:28.151Z,-0.80
2023-02-15T22:47:58.639Z,-0.80
2023-02-15T22:50:33.448Z,-0.90
2023-02-15T22:53:02.317Z,-1.00
2023-02-15T22:55:33.998Z,-1.00
2023-02-15T22:58:01.348Z,-1.00
2023-02-15T23:00:32.614Z,-1.10
2023-02-15T23:02:59.682Z,-1.20
2023-02-15T23:05:30.382Z,-1.10
2023-02-15T23:07:57.990Z,-1.10
2023-02-15T23:10:26.685Z,-1.10
2023-02-15T23:13:15.951Z,-1.20
2023-02-15T23:15:48.710Z,-1.20
2023-02-15T23:18:20.085Z,-1.30
2023-02-15T23:20:52.703Z,-1.30
2023-02-15T23:23:29.140Z,-1.20
2023-02-15T23:25:57.061Z,-1.20
2023-02-15T23:28:38.134Z,-1.30
2023-02-15T23:31:20.361Z,-1.30
2023-02-15T23:33:48.231Z,-1.30
2023-02-15T23:36:34.694Z,-1.40
2023-02-15T23:39:34.195Z,-1.40
2023-02-15T23:42:13.829Z,-1.50
2023-02-15T23:44:42.745Z,-1.40
2023-02-15T23:47:50.973Z,-1.40
2023-02-15T23:50:28.188Z,-1.50
2023-02-15T23:52:57.170Z,-1.50
2023-02-15T23:55:36.627Z,-1.50
2023-02-15T23:58:16.795Z,-1.50
